Time;durP1;ratioP1;P1;durP2;ratioP2;P2;SDS_P1;SDS_P2;PMS_P1;PMS_P2;Temp;Humidity;BMP_temperature;BMP_pressure;BME280_temperature;BME280_humidity;BME280_pressure;Samples;Min_cycle;Max_cycle;Signal;HPM_P1;HPM_P2
2022/12/28 00:00:13;;;;;;;9.10;3.80;;;5.00;99.90;;;;;;5051337;28;20211;-70
2022/12/28 00:02:42;;;;;;;15.03;5.50;;;5.00;99.90;;;;;;5050944;28;20243;-70
2022/12/28 00:05:11;;;;;;;9.17;4.63;;;5.00;99.90;;;;;;5052840;28;20663;-68
2022/12/28 00:07:40;;;;;;;10.47;3.60;;;5.00;99.90;;;;;;5052889;28;20204;-75
2022/12/28 00:10:10;;;;;;;19.07;4.63;;;5.00;99.90;;;;;;5052983;28;20555;-68
2022/12/28 00:12:39;;;;;;;11.57;4.43;;;5.00;99.90;;;;;;5052495;28;20592;-68
2022/12/28 00:15:08;;;;;;;8.27;4.53;;;5.00;99.90;;;;;;5052625;28;20243;-68
2022/12/28 00:17:39;;;;;;;14.57;5.27;;;5.00;99.90;;;;;;5052634;28;20204;-67
2022/12/28 00:20:08;;;;;;;7.07;4.43;;;5.00;99.90;;;;;;5052479;28;20227;-69
2022/12/28 00:22:37;;;;;;;8.27;4.50;;;5.00;99.90;;;;;;5052381;28;20609;-70
2022/12/28 00:25:07;;;;;;;13.93;3.77;;;4.90;99.90;;;;;;5052629;28;20201;-70
2022/12/28 00:27:36;;;;;;;12.07;4.50;;;4.90;99.90;;;;;;5052418;28;20689;-68
2022/12/28 00:30:06;;;;;;;10.90;4.10;;;4.80;99.90;;;;;;5052287;28;20727;-68
2022/12/28 00:32:35;;;;;;;11.20;3.77;;;4.70;99.90;;;;;;5052296;28;20206;-68
2022/12/28 00:35:06;;;;;;;9.33;3.93;;;4.70;99.90;;;;;;5052509;28;20251;-70
2022/12/28 00:37:35;;;;;;;13.13;4.07;;;4.70;99.90;;;;;;5051139;28;20208;-67
2022/12/28 00:40:07;;;;;;;13.97;4.60;;;4.70;99.90;;;;;;5051058;28;20217;-67
2022/12/28 00:42:36;;;;;;;13.03;5.53;;;4.70;99.90;;;;;;5050205;28;20219;-69
2022/12/28 00:45:06;;;;;;;14.50;4.70;;;4.70;99.90;;;;;;5052216;28;20196;-68
2022/12/28 00:47:35;;;;;;;12.00;4.50;;;4.70;99.90;;;;;;5052232;28;20205;-72
2022/12/28 00:50:06;;;;;;;8.57;4.17;;;4.70;99.90;;;;;;5052108;28;20192;-68
2022/12/28 00:52:37;;;;;;;10.43;4.03;;;4.80;99.90;;;;;;5052054;28;20748;-69
2022/12/28 00:55:06;;;;;;;10.27;4.10;;;4.80;99.90;;;;;;5050724;28;20204;-68
2022/12/28 00:57:39;;;;;;;11.67;4.83;;;4.80;99.90;;;;;;5050823;28;20704;-68
2022/12/28 01:00:09;;;;;;;6.60;4.00;;;4.60;99.90;;;;;;5051726;28;20219;-68
2022/12/28 01:02:38;;;;;;;12.03;4.10;;;4.60;99.90;;;;;;5051401;28;20228;-68
2022/12/28 01:05:10;;;;;;;15.03;4.43;;;4.50;99.90;;;;;;5052698;28;20548;-72
2022/12/28 01:07:41;;;;;;;12.57;4.90;;;4.50;99.90;;;;;;5051009;28;20638;-68
2022/12/28 01:10:10;;;;;;;7.23;4.57;;;4.50;99.90;;;;;;5052099;28;20298;-71
2022/12/28 01:12:39;;;;;;;10.20;4.37;;;4.50;99.90;;;;;;5051591;28;20201;-69
2022/12/28 01:15:11;;;;;;;12.10;4.60;;;4.40;99.90;;;;;;5050291;28;20204;-70
2022/12/28 01:17:41;;;;;;;14.43;4.33;;;4.50;99.90;;;;;;5051536;28;20195;-69
2022/12/28 01:20:12;;;;;;;17.00;4.47;;;4.40;99.90;;;;;;5051430;28;20233;-67
2022/12/28 01:22:41;;;;;;;12.03;4.93;;;4.40;99.90;;;;;;5051412;28;20229;-68
2022/12/28 01:25:11;;;;;;;11.43;4.57;;;4.40;99.90;;;;;;5051791;28;20201;-67
2022/12/28 01:27:40;;;;;;;14.77;5.03;;;4.30;99.90;;;;;;5067038;28;20203;-71
2022/12/28 01:30:13;;;;;;;13.83;4.97;;;4.40;99.90;;;;;;5051479;28;20192;-67
2022/12/28 01:32:42;;;;;;;13.37;4.90;;;4.30;99.90;;;;;;5050181;28;20203;-75
2022/12/28 01:35:12;;;;;;;10.57;5.07;;;4.30;99.90;;;;;;5051595;28;20199;-70
2022/12/28 01:37:41;;;;;;;9.87;4.87;;;4.30;99.90;;;;;;5044396;28;20193;-67
2022/12/28 01:40:15;;;;;;;13.47;5.20;;;4.30;99.90;;;;;;5030669;28;20680;-72
2022/12/28 01:42:44;;;;;;;13.37;5.33;;;4.30;99.90;;;;;;5031435;28;20289;-70
2022/12/28 01:45:18;;;;;;;10.47;5.20;;;4.20;99.90;;;;;;5031488;28;20352;-69
2022/12/28 01:47:53;;;;;;;10.83;6.17;;;4.20;99.90;;;;;;5030251;28;20199;-70
2022/12/28 01:50:27;;;;;;;14.37;5.53;;;4.20;99.90;;;;;;5031546;28;20681;-73
2022/12/28 01:53:00;;;;;;;12.33;5.27;;;4.20;99.90;;;;;;5030141;28;20206;-69
2022/12/28 01:55:33;;;;;;;18.30;5.33;;;4.30;99.90;;;;;;5031498;28;20203;-67
2022/12/28 01:58:06;;;;;;;13.30;5.57;;;4.30;99.90;;;;;;5030079;28;20675;-67
2022/12/28 02:00:35;;;;;;;11.10;5.43;;;4.30;99.90;;;;;;5029971;28;20571;-68
2022/12/28 02:03:07;;;;;;;12.33;4.97;;;4.30;99.90;;;;;;5031547;28;20246;-67
2022/12/28 02:05:40;;;;;;;11.17;6.23;;;4.30;99.90;;;;;;5048204;28;20216;-70
2022/12/28 02:08:17;;;;;;;11.93;6.17;;;4.30;99.90;;;;;;5046022;28;20730;-67
2022/12/28 02:10:47;;;;;;;14.40;6.60;;;4.40;99.90;;;;;;5031271;28;20715;-72
2022/12/28 02:13:17;;;;;;;14.83;6.23;;;4.30;99.90;;;;;;5046533;28;20208;-67
2022/12/28 02:15:49;;;;;;;13.73;6.23;;;4.30;99.90;;;;;;5031081;28;20680;-74
2022/12/28 02:18:21;;;;;;;16.43;6.70;;;4.40;99.90;;;;;;5032320;28;20193;-69
2022/12/28 02:21:18;;;;;;;16.00;6.63;;;4.40;99.90;;;;;;5050309;28;20231;-68
2022/12/28 02:24:32;;;;;;;10.50;5.73;;;4.40;99.90;;;;;;5034999;28;20219;-71
2022/12/28 02:27:07;;;;;;;17.43;6.97;;;4.40;99.90;;;;;;5035077;28;20291;-68
2022/12/28 02:29:59;;;;;;;9.60;6.93;;;4.40;99.90;;;;;;5054356;28;20199;-70
2022/12/28 02:32:51;;;;;;;12.47;6.93;;;4.40;99.90;;;;;;5053596;28;20202;-68
2022/12/28 02:35:29;;;;;;;16.47;7.07;;;4.40;99.90;;;;;;5054822;28;20208;-77
2022/12/28 02:38:03;;;;;;;13.30;6.83;;;4.40;99.90;;;;;;5055094;28;20255;-69
2022/12/28 02:40:37;;;;;;;14.43;6.13;;;4.40;99.90;;;;;;5053311;28;20210;-67
2022/12/28 02:43:06;;;;;;;19.17;7.00;;;4.50;99.90;;;;;;5054572;28;20280;-67
2022/12/28 02:51:29;;;;;;;12.97;6.03;;;4.40;99.90;;;;;;5054486;28;20203;-68
2022/12/28 02:57:14;;;;;;;14.43;6.63;;;4.40;99.90;;;;;;5054219;28;20284;-68
2022/12/28 03:00:02;;;;;;;8.50;6.57;;;4.40;99.90;;;;;;5052734;28;20539;-72
2022/12/28 03:02:56;;;;;;;12.17;7.10;;;4.40;99.90;;;;;;5052666;28;20716;-68
2022/12/28 03:08:30;;;;;;;14.60;7.07;;;4.40;99.90;;;;;;5052704;28;20214;-69
2022/12/28 03:11:05;;;;;;;13.90;7.30;;;4.30;99.90;;;;;;5052639;28;20209;-68
2022/12/28 03:13:44;;;;;;;10.87;7.03;;;4.30;99.90;;;;;;5052589;28;20223;-68
2022/12/28 03:16:25;;;;;;;15.80;6.67;;;4.40;99.90;;;;;;5052397;28;20304;-69
2022/12/28 03:33:11;;;;;;;13.13;7.77;;;4.40;99.90;;;;;;5052344;28;20548;-68
2022/12/28 03:35:55;;;;;;;16.23;7.87;;;4.30;99.90;;;;;;5052344;28;20586;-74
2022/12/28 03:38:29;;;;;;;15.43;7.57;;;4.20;99.90;;;;;;5052149;28;20207;-67
2022/12/28 03:41:09;;;;;;;13.23;7.70;;;4.10;99.90;;;;;;5052118;28;20196;-68
2022/12/28 03:43:44;;;;;;;13.67;7.80;;;4.10;99.90;;;;;;5052046;28;20239;-68
2022/12/28 03:46:21;;;;;;;13.80;8.30;;;4.20;99.90;;;;;;5052219;28;20199;-70
2022/12/28 03:48:51;;;;;;;12.37;8.23;;;4.10;99.90;;;;;;5051968;28;20256;-71
2022/12/28 03:51:24;;;;;;;18.53;8.90;;;4.10;99.90;;;;;;5051933;28;20222;-68
2022/12/28 03:53:54;;;;;;;13.20;8.47;;;4.20;99.90;;;;;;5051943;28;20211;-67
2022/12/28 03:56:25;;;;;;;15.13;8.73;;;4.20;99.90;;;;;;5051864;28;20225;-68
2022/12/28 03:58:57;;;;;;;17.40;9.40;;;4.20;99.90;;;;;;5051696;28;20220;-68
2022/12/28 04:01:35;;;;;;;14.50;8.67;;;4.20;99.90;;;;;;5051660;28;20211;-76
2022/12/28 04:04:04;;;;;;;23.93;14.50;;;4.20;99.90;;;;;;5051587;28;20280;-68
2022/12/28 04:06:36;;;;;;;18.00;9.50;;;4.30;99.90;;;;;;5051655;28;20199;-68
2022/12/28 04:09:05;;;;;;;14.90;9.00;;;4.30;99.90;;;;;;5068280;28;20199;-68
2022/12/28 04:11:38;;;;;;;15.47;8.37;;;4.40;99.90;;;;;;5051798;28;20447;-70
2022/12/28 04:14:10;;;;;;;13.00;8.03;;;4.30;99.90;;;;;;5051605;28;20206;-68
2022/12/28 04:16:43;;;;;;;19.40;9.00;;;4.30;99.90;;;;;;5051377;28;20668;-68
2022/12/28 04:19:16;;;;;;;17.13;8.93;;;4.30;99.90;;;;;;5051337;28;20669;-69
2022/12/28 04:21:48;;;;;;;14.97;8.80;;;4.40;99.90;;;;;;5051355;28;20206;-73
2022/12/28 04:24:17;;;;;;;18.87;7.60;;;4.40;99.90;;;;;;5052580;28;20308;-68
2022/12/28 04:26:46;;;;;;;14.67;8.03;;;4.40;99.90;;;;;;5051248;28;20610;-69
2022/12/28 04:29:15;;;;;;;14.93;7.50;;;4.50;99.90;;;;;;5051126;28;20628;-75
2022/12/28 04:31:55;;;;;;;12.43;7.63;;;4.50;99.90;;;;;;5051063;28;20692;-67
2022/12/28 04:34:24;;;;;;;10.90;6.10;;;4.50;99.90;;;;;;5051393;28;20255;-67
2022/12/28 04:37:07;;;;;;;11.13;6.67;;;4.50;99.90;;;;;;5051124;28;20313;-67
2022/12/28 04:39:36;;;;;;;12.77;6.63;;;4.50;99.90;;;;;;5051024;28;20199;-68
2022/12/28 04:42:27;;;;;;;12.53;6.93;;;4.40;99.90;;;;;;5051176;28;20204;-72
2022/12/28 04:44:56;;;;;;;9.13;7.00;;;4.30;99.90;;;;;;5051950;28;20674;-70
2022/12/28 04:47:25;;;;;;;13.53;6.87;;;4.30;99.90;;;;;;5052284;28;20286;-71
2022/12/28 04:49:54;;;;;;;9.53;6.43;;;4.40;99.90;;;;;;5052094;28;20261;-72
2022/12/28 04:52:28;;;;;;;10.63;6.03;;;4.30;99.90;;;;;;5052108;28;20225;-73
2022/12/28 04:54:57;;;;;;;14.83;6.93;;;4.30;99.90;;;;;;5052144;28;20199;-68
2022/12/28 04:57:26;;;;;;;8.47;6.97;;;4.30;99.90;;;;;;5052214;28;20211;-69
2022/12/28 04:59:55;;;;;;;12.03;5.73;;;4.30;99.90;;;;;;5051856;28;20201;-74
2022/12/28 05:02:24;;;;;;;12.40;6.60;;;4.30;99.90;;;;;;5052050;28;20243;-72
2022/12/28 05:04:53;;;;;;;16.43;6.53;;;4.30;99.90;;;;;;5051793;28;20281;-73
2022/12/28 05:07:21;;;;;;;9.67;6.13;;;4.30;99.90;;;;;;5051901;28;20193;-70
2022/12/28 05:09:52;;;;;;;17.20;6.40;;;4.30;99.90;;;;;;5052000;28;20203;-69
2022/12/28 05:12:22;;;;;;;8.53;6.27;;;4.20;99.90;;;;;;5051827;28;20199;-68
2022/12/28 05:14:52;;;;;;;8.73;6.13;;;4.30;99.90;;;;;;5051836;28;20210;-67
2022/12/28 05:17:21;;;;;;;12.60;6.40;;;4.30;99.90;;;;;;5050269;28;20261;-69
2022/12/28 05:19:50;;;;;;;10.43;5.77;;;4.20;99.90;;;;;;5051543;28;20307;-68
2022/12/28 05:22:18;;;;;;;10.67;6.30;;;4.10;99.90;;;;;;5051701;28;20669;-72
2022/12/28 05:24:47;;;;;;;11.67;6.53;;;4.00;99.90;;;;;;5051536;28;20302;-73
2022/12/28 05:27:18;;;;;;;12.73;7.10;;;3.90;99.90;;;;;;5050269;28;20218;-71
2022/12/28 05:29:47;;;;;;;9.73;6.67;;;3.90;99.90;;;;;;4989712;28;21161;-68
2022/12/28 05:32:17;;;;;;;13.80;6.67;;;3.90;99.90;;;;;;4990043;28;20214;-70
2022/12/28 05:34:46;;;;;;;14.00;7.90;;;3.90;99.90;;;;;;4990166;28;20211;-72
2022/12/28 05:37:15;;;;;;;11.83;6.43;;;3.90;99.90;;;;;;4990115;28;20706;-70
2022/12/28 05:39:49;;;;;;;11.97;6.90;;;4.00;99.90;;;;;;4973718;28;20204;-70
2022/12/28 05:42:20;;;;;;;15.77;6.83;;;4.00;99.90;;;;;;4990096;28;20225;-77
2022/12/28 05:44:49;;;;;;;11.30;6.57;;;4.00;99.90;;;;;;4989776;28;20240;-70
2022/12/28 05:47:18;;;;;;;13.20;8.10;;;4.10;99.90;;;;;;4995665;28;20206;-71
2022/12/28 05:49:47;;;;;;;13.87;7.33;;;4.00;99.90;;;;;;5051368;28;20206;-68
2022/12/28 05:52:16;;;;;;;13.27;7.83;;;4.00;99.90;;;;;;5051433;28;20206;-68
2022/12/28 05:54:46;;;;;;;11.10;7.50;;;4.10;99.90;;;;;;5055171;28;20671;-67
2022/12/28 05:57:15;;;;;;;7.87;7.07;;;4.10;99.90;;;;;;5055508;28;20248;-67
2022/12/28 05:59:45;;;;;;;15.17;8.53;;;4.10;99.90;;;;;;5055258;28;20206;-68
2022/12/28 06:02:14;;;;;;;13.33;8.10;;;4.10;99.90;;;;;;5055498;28;20574;-68
2022/12/28 06:04:46;;;;;;;14.03;8.90;;;4.10;99.90;;;;;;5055272;28;20240;-69
2022/12/28 06:07:15;;;;;;;16.03;8.93;;;4.10;99.90;;;;;;5055296;28;20593;-69
2022/12/28 06:09:44;;;;;;;10.17;9.10;;;4.00;99.90;;;;;;5055244;28;20253;-68
2022/12/28 06:12:13;;;;;;;12.93;8.77;;;4.00;99.90;;;;;;5055114;28;20562;-69
2022/12/28 06:14:42;;;;;;;11.53;9.20;;;4.00;99.90;;;;;;5055391;28;20216;-68
2022/12/28 06:17:12;;;;;;;17.17;9.67;;;4.00;99.90;;;;;;5053695;28;20241;-68
2022/12/28 06:19:41;;;;;;;18.33;9.23;;;4.10;99.90;;;;;;5037295;28;20244;-71
2022/12/28 06:22:09;;;;;;;13.53;10.17;;;4.00;99.90;;;;;;5045362;28;20199;-67
2022/12/28 06:24:38;;;;;;;17.20;9.83;;;4.00;99.90;;;;;;5055016;28;20290;-68
2022/12/28 06:27:07;;;;;;;14.23;9.70;;;4.00;99.90;;;;;;5055041;28;20199;-68
2022/12/28 06:29:36;;;;;;;14.47;10.23;;;4.00;99.90;;;;;;5054803;28;20278;-71
2022/12/28 06:32:05;;;;;;;15.40;10.20;;;4.00;99.90;;;;;;5045301;28;20282;-74
2022/12/28 06:34:36;;;;;;;16.87;10.63;;;4.00;99.90;;;;;;5034900;28;20199;-68
2022/12/28 06:37:05;;;;;;;19.40;11.23;;;4.10;99.90;;;;;;5034838;28;20245;-67
2022/12/28 06:39:33;;;;;;;18.57;10.77;;;4.10;99.90;;;;;;5050163;28;20621;-68
2022/12/28 06:42:02;;;;;;;16.77;10.37;;;4.10;99.90;;;;;;5035276;28;20211;-69
2022/12/28 06:44:31;;;;;;;16.40;10.53;;;4.00;99.90;;;;;;5036349;28;20232;-68
2022/12/28 06:47:00;;;;;;;16.80;9.93;;;4.00;99.90;;;;;;5050197;28;20200;-68
2022/12/28 06:49:29;;;;;;;17.03;10.47;;;4.00;99.90;;;;;;5054554;28;20198;-69
2022/12/28 06:51:59;;;;;;;14.83;10.20;;;4.00;99.90;;;;;;5053202;28;20187;-68
2022/12/28 06:54:28;;;;;;;15.80;10.57;;;4.00;99.90;;;;;;5034513;28;20197;-67
2022/12/28 06:56:57;;;;;;;16.30;10.60;;;4.00;99.90;;;;;;5034497;28;20209;-68
2022/12/28 06:59:26;;;;;;;17.30;10.53;;;4.10;99.90;;;;;;5034310;28;20243;-71
2022/12/28 07:01:54;;;;;;;16.87;10.27;;;4.10;99.90;;;;;;5035890;28;20197;-68
2022/12/28 07:04:23;;;;;;;13.73;10.33;;;4.20;99.90;;;;;;5044532;28;20703;-70
2022/12/28 07:06:53;;;;;;;18.17;10.77;;;4.20;99.90;;;;;;5048201;28;20204;-78
2022/12/28 07:09:23;;;;;;;13.17;10.37;;;4.20;99.90;;;;;;5052604;28;20255;-77
2022/12/28 07:11:52;;;;;;;16.17;10.00;;;4.30;99.90;;;;;;5054202;28;20196;-76
2022/12/28 07:14:21;;;;;;;21.93;11.20;;;4.20;99.90;;;;;;5054276;28;20743;-78
2022/12/28 07:16:50;;;;;;;17.73;12.13;;;4.20;99.90;;;;;;5054241;28;20693;-69
2022/12/28 07:19:18;;;;;;;17.00;11.13;;;4.30;99.90;;;;;;5053884;28;20653;-67
2022/12/28 07:21:49;;;;;;;21.13;11.87;;;4.40;99.90;;;;;;5049962;28;20598;-68
2022/12/28 07:24:18;;;;;;;20.60;12.40;;;4.30;99.90;;;;;;5034336;28;20232;-68
2022/12/28 07:26:49;;;;;;;15.00;11.27;;;4.40;99.90;;;;;;5033999;28;20620;-68
2022/12/28 07:29:18;;;;;;;19.53;12.87;;;4.50;99.90;;;;;;5033906;28;20197;-69
2022/12/28 07:31:46;;;;;;;15.60;11.97;;;4.40;99.90;;;;;;5033775;28;20620;-68
2022/12/28 07:34:16;;;;;;;18.03;12.00;;;4.50;99.90;;;;;;5033751;28;20670;-75
2022/12/28 07:36:44;;;;;;;19.20;12.07;;;4.50;99.90;;;;;;5033835;28;20205;-68
2022/12/28 07:39:13;;;;;;;19.17;11.87;;;4.40;99.90;;;;;;5033942;28;20576;-72
2022/12/28 07:41:42;;;;;;;18.87;12.93;;;4.50;99.90;;;;;;5033809;28;20207;-72
2022/12/28 07:44:12;;;;;;;19.97;13.37;;;4.60;99.90;;;;;;5033552;28;20197;-70
2022/12/28 07:46:41;;;;;;;19.47;13.60;;;4.70;99.90;;;;;;5033554;28;20249;-70
2022/12/28 07:49:10;;;;;;;19.53;12.70;;;4.70;99.90;;;;;;5033676;28;20225;-71
2022/12/28 07:51:39;;;;;;;19.13;13.73;;;4.70;99.90;;;;;;5033557;28;20197;-68
2022/12/28 07:54:08;;;;;;;20.00;12.40;;;4.90;99.90;;;;;;5033386;28;20674;-68
2022/12/28 07:56:37;;;;;;;25.50;15.97;;;4.80;99.90;;;;;;5033347;28;20196;-67
2022/12/28 07:59:06;;;;;;;22.40;13.50;;;4.80;99.90;;;;;;5033009;28;20703;-67
2022/12/28 08:01:37;;;;;;;21.33;13.20;;;4.90;99.90;;;;;;5033149;28;20193;-68
2022/12/28 08:04:07;;;;;;;21.47;13.93;;;4.90;99.90;;;;;;5033185;28;20236;-69
2022/12/28 08:06:39;;;;;;;20.33;13.83;;;5.00;99.90;;;;;;5033126;28;20238;-70
2022/12/28 08:09:09;;;;;;;20.70;12.70;;;5.00;99.90;;;;;;5033122;28;20207;-67
2022/12/28 08:11:41;;;;;;;21.03;12.97;;;5.10;99.90;;;;;;5048553;28;20203;-68
2022/12/28 08:14:10;;;;;;;16.53;11.97;;;4.90;99.90;;;;;;5032943;28;20203;-67
2022/12/28 08:16:43;;;;;;;19.27;12.90;;;4.80;99.90;;;;;;5032404;28;20193;-67
2022/12/28 08:19:12;;;;;;;67.37;36.43;;;4.80;99.90;;;;;;5032769;28;20235;-69
2022/12/28 08:21:43;;;;;;;39.93;22.70;;;4.80;99.90;;;;;;5032899;28;20215;-69
2022/12/28 08:24:15;;;;;;;24.73;13.97;;;4.90;99.90;;;;;;5032846;28;20210;-71
2022/12/28 08:26:45;;;;;;;20.17;13.73;;;5.00;99.90;;;;;;5032694;28;20216;-67
2022/12/28 08:29:16;;;;;;;43.03;24.23;;;5.00;99.90;;;;;;5032638;28;20283;-73
2022/12/28 08:31:46;;;;;;;23.70;17.13;;;5.10;99.90;;;;;;5032448;28;20215;-67
2022/12/28 08:34:18;;;;;;;19.70;12.40;;;5.10;99.90;;;;;;5032660;28;20205;-70
2022/12/28 08:36:47;;;;;;;21.57;12.80;;;5.20;99.90;;;;;;5032475;28;20209;-73
2022/12/28 08:39:15;;;;;;;22.10;13.00;;;5.10;99.90;;;;;;5032520;28;20266;-71
2022/12/28 08:41:44;;;;;;;18.47;13.40;;;5.10;99.90;;;;;;5045710;28;20208;-70
2022/12/28 08:44:13;;;;;;;22.90;13.57;;;5.00;99.90;;;;;;5052942;28;20206;-72
2022/12/28 08:46:42;;;;;;;21.80;13.63;;;5.00;99.90;;;;;;5052087;28;20220;-69
2022/12/28 08:49:13;;;;;;;25.33;15.03;;;4.80;99.90;;;;;;5052203;28;20286;-69
2022/12/28 08:51:42;;;;;;;19.40;12.97;;;4.80;99.90;;;;;;5051947;28;20671;-70
2022/12/28 08:54:13;;;;;;;18.83;13.20;;;4.80;99.90;;;;;;5052175;28;20195;-72
2022/12/28 08:56:44;;;;;;;19.33;14.47;;;4.70;99.90;;;;;;5052120;28;20238;-69
2022/12/28 08:59:15;;;;;;;19.77;13.73;;;4.80;99.90;;;;;;5051880;28;20575;-70
2022/12/28 09:01:45;;;;;;;20.77;14.27;;;4.90;99.90;;;;;;5051546;28;20298;-71
2022/12/28 09:04:18;;;;;;;21.27;14.97;;;4.90;99.90;;;;;;5051642;28;20219;-74
2022/12/28 09:06:48;;;;;;;19.03;14.00;;;4.90;99.90;;;;;;5051737;28;20639;-75
2022/12/28 09:09:19;;;;;;;19.07;13.07;;;4.90;99.90;;;;;;5051672;28;20203;-68
2022/12/28 09:11:49;;;;;;;23.17;14.40;;;5.00;99.90;;;;;;5051347;28;20615;-71
2022/12/28 09:14:18;;;;;;;20.77;13.33;;;5.00;99.90;;;;;;5038687;28;20205;-70
2022/12/28 09:16:52;;;;;;;21.00;13.53;;;5.00;99.90;;;;;;5031667;28;20232;-70
2022/12/28 09:19:22;;;;;;;21.50;14.00;;;4.90;99.90;;;;;;5030180;28;20241;-72
2022/12/28 09:21:54;;;;;;;21.60;14.67;;;4.90;99.90;;;;;;5041973;28;20299;-70
2022/12/28 09:24:23;;;;;;;26.10;15.83;;;4.90;99.90;;;;;;4978786;28;20723;-73
2022/12/28 09:26:54;;;;;;;22.13;14.33;;;4.80;99.90;;;;;;4972550;28;20248;-74
2022/12/28 09:29:23;;;;;;;19.67;14.43;;;4.80;99.90;;;;;;4976039;28;20220;-72
2022/12/28 09:31:52;;;;;;;18.70;13.70;;;4.80;99.90;;;;;;4970340;28;20203;-71
2022/12/28 09:34:22;;;;;;;21.23;14.70;;;4.90;99.90;;;;;;4951933;28;20247;-71
2022/12/28 09:37:03;;;;;;;18.87;14.00;;;4.90;99.90;;;;;;4950805;29;20203;-73
2022/12/28 09:39:32;;;;;;;21.00;13.80;;;4.80;99.90;;;;;;4951174;29;20206;-73
2022/12/28 09:42:04;;;;;;;21.07;14.70;;;4.80;99.90;;;;;;4971579;28;20614;-70
2022/12/28 09:44:54;;;;;;;18.63;13.37;;;4.70;99.90;;;;;;5042390;28;20238;-73
2022/12/28 09:47:32;;;;;;;16.03;13.30;;;4.80;99.90;;;;;;5051806;28;20241;-70
2022/12/28 09:50:28;;;;;;;20.73;13.73;;;4.80;99.90;;;;;;5051193;28;20200;-71
2022/12/28 09:53:21;;;;;;;20.53;13.87;;;4.70;99.90;;;;;;5051038;28;20711;-69
2022/12/28 09:56:02;;;;;;;20.93;13.57;;;4.70;99.90;;;;;;5051243;28;20682;-72
2022/12/28 09:58:34;;;;;;;18.97;13.80;;;4.80;99.90;;;;;;5051237;28;20209;-70
2022/12/28 10:01:04;;;;;;;17.53;14.03;;;4.90;99.90;;;;;;5046774;28;20231;-71
2022/12/28 10:03:37;;;;;;;17.87;13.00;;;4.80;99.90;;;;;;5042051;28;20243;-70
2022/12/28 10:06:12;;;;;;;19.10;13.10;;;4.90;99.90;;;;;;5041672;28;20220;-70
2022/12/28 10:08:44;;;;;;;20.47;12.83;;;4.90;99.90;;;;;;5051693;28;20188;-70
2022/12/28 10:11:18;;;;;;;13.47;11.87;;;4.80;99.90;;;;;;5051313;28;20207;-69
2022/12/28 10:13:53;;;;;;;16.93;13.20;;;4.80;99.90;;;;;;5050480;28;20204;-72
2022/12/28 10:16:26;;;;;;;17.53;13.33;;;4.80;99.90;;;;;;5031318;28;20200;-73
2022/12/28 10:18:55;;;;;;;18.97;13.30;;;4.80;99.90;;;;;;5030921;28;20290;-73
2022/12/28 10:21:30;;;;;;;18.27;14.33;;;4.90;99.90;;;;;;5031123;28;20194;-70
2022/12/28 10:24:04;;;;;;;17.83;13.70;;;4.90;99.90;;;;;;5031038;28;20197;-70
2022/12/28 10:26:56;;;;;;;17.80;13.83;;;5.00;99.90;;;;;;5031090;28;20231;-70
2022/12/28 10:29:26;;;;;;;16.77;12.33;;;4.90;99.90;;;;;;5030999;28;20571;-70
2022/12/28 10:32:02;;;;;;;18.00;13.77;;;4.90;99.90;;;;;;5031047;28;20210;-70
2022/12/28 10:34:33;;;;;;;18.43;12.40;;;5.10;99.90;;;;;;5030970;28;20200;-73
2022/12/28 10:37:13;;;;;;;22.33;13.60;;;5.10;99.90;;;;;;5031112;28;20205;-69
2022/12/28 10:39:53;;;;;;;21.87;14.07;;;5.10;99.90;;;;;;5032949;28;20209;-69
2022/12/28 10:42:26;;;;;;;18.97;14.83;;;5.10;99.90;;;;;;5034592;28;20205;-69
2022/12/28 10:45:04;;;;;;;18.40;13.67;;;5.20;99.90;;;;;;5048044;28;20215;-69
2022/12/28 10:47:41;;;;;;;19.40;14.87;;;5.10;99.90;;;;;;5054076;28;20759;-70
2022/12/28 10:50:39;;;;;;;21.70;14.13;;;5.10;99.90;;;;;;5054526;28;20201;-72
2022/12/28 10:53:24;;;;;;;19.73;13.43;;;5.10;99.90;;;;;;5054262;28;20200;-69
2022/12/28 10:56:04;;;;;;;43.07;27.20;;;5.20;99.90;;;;;;5054246;28;20235;-70
2022/12/28 10:58:33;;;;;;;19.80;12.40;;;5.30;99.90;;;;;;5054151;28;20203;-70
2022/12/28 11:01:05;;;;;;;18.43;13.37;;;5.30;99.90;;;;;;5054314;28;20201;-69
2022/12/28 11:03:36;;;;;;;17.80;12.20;;;5.20;99.90;;;;;;5053874;28;20647;-68
2022/12/28 11:06:10;;;;;;;18.23;12.97;;;5.30;99.90;;;;;;5054357;28;20191;-71
2022/12/28 11:08:42;;;;;;;14.07;11.70;;;5.30;99.90;;;;;;5054415;28;20208;-71
2022/12/28 11:11:19;;;;;;;22.47;13.77;;;5.40;99.90;;;;;;5054212;28;20208;-74
2022/12/28 11:13:52;;;;;;;16.70;11.67;;;5.40;99.90;;;;;;5053704;28;20197;-70
2022/12/28 11:16:21;;;;;;;13.03;10.80;;;5.30;99.90;;;;;;5051285;28;20612;-70
2022/12/28 11:18:51;;;;;;;14.20;10.57;;;5.30;99.90;;;;;;5041814;28;20270;-71
2022/12/28 11:21:22;;;;;;;14.37;11.03;;;5.40;99.90;;;;;;5051580;28;20203;-68
2022/12/28 11:23:53;;;;;;;13.00;10.37;;;5.40;99.90;;;;;;5033944;28;20272;-70
2022/12/28 11:26:22;;;;;;;16.40;11.03;;;5.50;99.90;;;;;;5033761;28;20267;-72
2022/12/28 11:28:52;;;;;;;19.73;11.40;;;5.50;99.90;;;;;;5033802;28;20598;-72
2022/12/28 11:31:29;;;;;;;14.73;10.30;;;5.40;99.90;;;;;;5051799;28;20553;-70
2022/12/28 11:34:02;;;;;;;16.10;10.20;;;5.40;99.90;;;;;;5053511;28;20693;-70
2022/12/28 11:36:33;;;;;;;14.67;9.63;;;5.50;99.90;;;;;;5034780;28;20221;-69
2022/12/28 11:39:43;;;;;;;14.70;9.23;;;5.50;99.90;;;;;;5033907;28;20212;-74
2022/12/28 11:42:33;;;;;;;15.10;9.53;;;5.50;99.90;;;;;;5042289;28;20239;-71
2022/12/28 11:45:13;;;;;;;13.03;8.67;;;5.50;99.90;;;;;;5048228;28;20233;-72
2022/12/28 11:47:44;;;;;;;17.23;9.27;;;5.60;99.90;;;;;;5053294;28;20226;-70
2022/12/28 11:50:41;;;;;;;10.23;8.67;;;5.60;99.90;;;;;;5053231;28;20226;-72
2022/12/28 11:53:43;;;;;;;16.43;9.60;;;5.50;99.90;;;;;;5011493;28;20242;-70
2022/12/28 11:56:15;;;;;;;12.90;8.37;;;5.50;99.90;;;;;;5011373;28;20204;-74
2022/12/28 11:58:47;;;;;;;11.83;8.33;;;5.50;99.90;;;;;;5011202;28;20224;-70
2022/12/28 12:01:55;;;;;;;9.10;8.03;;;5.40;99.90;;;;;;5011496;28;20207;-74
2022/12/28 12:04:44;;;;;;;11.57;7.53;;;5.50;99.90;;;;;;5010973;28;20221;-69
2022/12/28 12:07:21;;;;;;;10.17;7.97;;;5.50;99.90;;;;;;5011675;28;20350;-70
2022/12/28 12:10:32;;;;;;;10.83;6.63;;;5.50;99.90;;;;;;5011171;28;20217;-70
2022/12/28 12:13:19;;;;;;;11.60;7.73;;;5.50;99.90;;;;;;4952787;29;20231;-72
2022/12/28 12:15:55;;;;;;;11.53;7.53;;;5.50;99.90;;;;;;4951582;29;20320;-70
2022/12/28 12:18:26;;;;;;;10.97;7.50;;;5.60;99.90;;;;;;4952151;29;20223;-69
2022/12/28 12:21:00;;;;;;;12.43;7.47;;;5.60;99.90;;;;;;4952715;29;20222;-71
2022/12/28 12:23:39;;;;;;;9.37;8.10;;;5.70;99.90;;;;;;4950322;29;20243;-71
2022/12/28 12:26:26;;;;;;;11.87;8.43;;;5.70;99.90;;;;;;4933586;29;20213;-69
2022/12/28 12:29:02;;;;;;;13.10;7.60;;;5.80;99.90;;;;;;4958506;28;20301;-70
2022/12/28 12:31:36;;;;;;;12.97;7.97;;;5.80;99.90;;;;;;4991116;28;20210;-73
2022/12/28 12:34:12;;;;;;;8.67;7.27;;;5.90;99.90;;;;;;4990922;28;20204;-70
2022/12/28 12:37:37;;;;;;;9.90;7.33;;;5.80;99.90;;;;;;4991161;28;20716;-74
2022/12/28 12:40:26;;;;;;;8.47;7.00;;;5.80;99.90;;;;;;4895224;29;20213;-70
2022/12/28 12:43:12;;;;;;;18.77;11.20;;;5.80;99.90;;;;;;4876458;29;20586;-70
2022/12/28 12:45:51;;;;;;;11.23;7.23;;;5.70;99.90;;;;;;4876216;29;20320;-72
2022/12/28 12:48:36;;;;;;;9.90;7.00;;;5.70;99.90;;;;;;4903195;29;20322;-70
2022/12/28 12:51:26;;;;;;;9.43;7.03;;;5.70;99.90;;;;;;4951969;28;20218;-69
2022/12/28 12:54:07;;;;;;;18.93;9.73;;;5.60;99.90;;;;;;4954733;28;20215;-70
2022/12/28 12:56:48;;;;;;;13.00;7.50;;;5.60;99.90;;;;;;4971068;28;20210;-70
2022/12/28 12:59:32;;;;;;;9.93;6.33;;;5.60;99.90;;;;;;4971258;28;20318;-72
2022/12/28 13:02:22;;;;;;;8.60;6.47;;;5.70;99.90;;;;;;4970717;28;20225;-71
2022/12/28 13:04:52;;;;;;;9.77;6.43;;;5.70;99.90;;;;;;4968824;28;20208;-70
2022/12/28 13:07:23;;;;;;;9.20;7.40;;;5.60;99.90;;;;;;4970951;28;20219;-71
2022/12/28 13:09:54;;;;;;;10.13;6.60;;;5.70;99.90;;;;;;4971062;28;20213;-69
2022/12/28 13:12:24;;;;;;;9.03;7.00;;;5.80;99.90;;;;;;4971004;28;20217;-69
2022/12/28 13:14:57;;;;;;;9.10;6.17;;;5.90;99.90;;;;;;4999109;28;20210;-70
2022/12/28 13:17:29;;;;;;;7.23;6.10;;;5.90;99.90;;;;;;5044126;28;20237;-73
2022/12/28 13:20:17;;;;;;;10.53;6.20;;;5.90;99.90;;;;;;5051573;28;20232;-71
2022/12/28 13:22:48;;;;;;;9.87;5.63;;;6.00;99.90;;;;;;5051823;28;20300;-71
2022/12/28 13:25:28;;;;;;;10.77;6.70;;;5.90;99.90;;;;;;5051268;28;20223;-71
2022/12/28 13:27:59;;;;;;;7.67;6.30;;;5.90;99.90;;;;;;5051574;28;20224;-69
2022/12/28 13:30:29;;;;;;;11.47;6.07;;;5.80;99.90;;;;;;5051451;28;20196;-72
2022/12/28 13:33:02;;;;;;;9.87;6.70;;;5.80;99.90;;;;;;5051643;28;20209;-70
2022/12/28 13:35:33;;;;;;;19.80;10.77;;;5.80;99.90;;;;;;5051307;28;20240;-70
2022/12/28 13:38:03;;;;;;;10.40;6.60;;;5.80;99.90;;;;;;5050013;28;20285;-68
2022/12/28 13:40:33;;;;;;;9.53;6.57;;;5.80;99.90;;;;;;5033823;28;20633;-71